Time;durP1;ratioP1;P1;durP2;ratioP2;P2;SDS_P1;SDS_P2;PMS_P1;PMS_P2;Temp;Humidity;BMP_temperature;BMP_pressure;BME280_temperature;BME280_humidity;BME280_pressure;Samples;Min_cycle;Max_cycle;Signal;HPM_P1;HPM_P2
2022/10/30 00:00:18;;;;;;;31.27;16.47;;;12.50;99.90;;;;;;5112880;28;20473;-74
2022/10/30 00:02:46;;;;;;;33.00;17.57;;;12.50;99.90;;;;;;5112198;28;21004;-75
2022/10/30 00:05:13;;;;;;;35.77;17.73;;;12.50;99.90;;;;;;5112777;28;20455;-75
2022/10/30 00:07:39;;;;;;;34.90;16.37;;;12.50;99.90;;;;;;5112668;28;20546;-74
2022/10/30 00:10:09;;;;;;;32.23;17.00;;;12.50;99.90;;;;;;5112074;28;20450;-74
2022/10/30 00:12:36;;;;;;;27.80;17.23;;;12.50;99.90;;;;;;5091620;28;20481;-74
2022/10/30 00:15:04;;;;;;;29.50;17.53;;;12.40;99.90;;;;;;5091992;28;20458;-75
2022/10/30 00:17:30;;;;;;;32.17;17.70;;;12.40;99.90;;;;;;5091971;28;20458;-75
2022/10/30 00:19:57;;;;;;;30.03;17.30;;;12.40;99.90;;;;;;5098336;28;20499;-74
2022/10/30 00:22:24;;;;;;;39.23;17.30;;;12.40;99.90;;;;;;5112165;28;20466;-74
2022/10/30 00:24:51;;;;;;;30.10;17.10;;;12.40;99.90;;;;;;5096844;28;20500;-74
2022/10/30 00:27:19;;;;;;;29.60;17.57;;;12.40;99.90;;;;;;5092273;28;20924;-74
2022/10/30 00:29:45;;;;;;;41.87;17.40;;;12.30;99.90;;;;;;5091693;28;20960;-74
2022/10/30 00:32:12;;;;;;;28.13;16.23;;;12.40;99.90;;;;;;5092399;28;20479;-74
2022/10/30 00:34:39;;;;;;;27.50;16.37;;;12.40;99.90;;;;;;5112009;28;20465;-74
2022/10/30 00:37:05;;;;;;;38.90;17.73;;;12.40;99.90;;;;;;5099216;27;20860;-74
2022/10/30 00:39:32;;;;;;;40.37;19.27;;;12.40;99.90;;;;;;5091943;28;20458;-74
2022/10/30 00:41:59;;;;;;;35.97;17.37;;;12.30;99.90;;;;;;5091774;28;20844;-74
2022/10/30 00:44:40;;;;;;;34.40;17.40;;;12.30;99.90;;;;;;5092686;28;20448;-75
2022/10/30 00:47:12;;;;;;;34.23;18.13;;;12.30;99.90;;;;;;5092023;28;20455;-74
2022/10/30 00:49:53;;;;;;;39.13;17.47;;;12.30;99.90;;;;;;5100109;28;20450;-74
2022/10/30 00:52:22;;;;;;;37.07;18.20;;;12.30;99.90;;;;;;5111645;28;20469;-74
2022/10/30 00:54:50;;;;;;;33.77;20.27;;;12.30;99.90;;;;;;5096831;28;20457;-74
2022/10/30 00:57:18;;;;;;;33.17;19.80;;;12.30;99.90;;;;;;5091901;28;20466;-74
2022/10/30 00:59:47;;;;;;;38.27;19.83;;;12.20;99.90;;;;;;5091639;28;20447;-74
2022/10/30 01:02:16;;;;;;;35.90;19.00;;;12.30;99.90;;;;;;5091648;28;20999;-74
2022/10/30 01:04:44;;;;;;;38.03;19.30;;;12.30;99.90;;;;;;5091452;28;20829;-74
2022/10/30 01:07:15;;;;;;;35.37;19.87;;;12.30;99.90;;;;;;5091677;28;20510;-74
2022/10/30 01:09:42;;;;;;;38.83;17.30;;;12.30;99.90;;;;;;5091660;28;20451;-74
2022/10/30 01:12:09;;;;;;;30.47;16.60;;;12.30;99.90;;;;;;5107066;28;20997;-74
2022/10/30 01:14:40;;;;;;;36.00;17.10;;;12.20;99.90;;;;;;5091345;28;20486;-74
2022/10/30 01:17:37;;;;;;;37.97;17.17;;;12.20;99.90;;;;;;5091436;28;20521;-74
2022/10/30 01:20:14;;;;;;;35.13;17.63;;;12.20;99.90;;;;;;5091260;28;20823;-74
2022/10/30 01:22:57;;;;;;;35.40;17.13;;;12.20;99.90;;;;;;5091415;28;20463;-74
2022/10/30 01:25:35;;;;;;;33.80;17.10;;;12.20;99.90;;;;;;5109586;28;20458;-74
2022/10/30 01:28:16;;;;;;;33.57;17.67;;;12.10;99.90;;;;;;5111614;28;20453;-74
2022/10/30 01:30:56;;;;;;;31.10;17.63;;;12.10;99.90;;;;;;5095624;28;20465;-74
2022/10/30 01:33:33;;;;;;;28.17;16.37;;;12.10;99.90;;;;;;5091382;28;20538;-74
2022/10/30 01:36:09;;;;;;;32.70;16.57;;;12.10;99.90;;;;;;5095320;28;20454;-74
2022/10/30 01:38:39;;;;;;;31.33;14.67;;;12.10;99.90;;;;;;5096142;28;20457;-74
2022/10/30 01:41:06;;;;;;;25.83;15.90;;;12.10;99.90;;;;;;5095304;28;20457;-74
2022/10/30 01:43:34;;;;;;;28.87;16.47;;;12.10;99.90;;;;;;5098037;28;20458;-74
2022/10/30 01:46:27;;;;;;;31.17;16.43;;;12.10;99.90;;;;;;5094999;28;20870;-74
2022/10/30 01:49:10;;;;;;;35.37;17.70;;;12.10;99.90;;;;;;5096746;28;20455;-74
2022/10/30 01:51:51;;;;;;;29.97;18.90;;;12.10;99.90;;;;;;5115093;28;20448;-74
2022/10/30 01:54:26;;;;;;;32.30;17.67;;;12.10;99.90;;;;;;5114579;28;20492;-74
2022/10/30 01:57:02;;;;;;;29.10;16.70;;;12.10;99.90;;;;;;5115297;28;20528;-74
2022/10/30 01:59:34;;;;;;;32.43;16.00;;;12.10;99.90;;;;;;5115013;28;20449;-74
2022/10/30 02:02:01;;;;;;;30.43;16.40;;;12.10;99.90;;;;;;5115001;27;20519;-74
2022/10/30 02:04:30;;;;;;;24.67;15.37;;;12.10;99.90;;;;;;5114598;28;20446;-74
2022/10/30 02:06:57;;;;;;;27.67;15.87;;;12.10;99.90;;;;;;5115029;28;20955;-74
2022/10/30 02:09:25;;;;;;;33.43;15.37;;;12.10;99.90;;;;;;5104856;28;20450;-74
2022/10/30 02:11:53;;;;;;;27.90;15.03;;;12.10;99.90;;;;;;5109354;28;20449;-75
2022/10/30 02:14:24;;;;;;;35.67;15.60;;;12.10;99.90;;;;;;5106205;27;20489;-74
2022/10/30 02:16:54;;;;;;;23.87;16.37;;;12.00;99.90;;;;;;5094475;28;20990;-74
2022/10/30 02:19:21;;;;;;;28.73;15.00;;;12.00;99.90;;;;;;5094497;28;20450;-74
2022/10/30 02:21:49;;;;;;;29.40;14.23;;;12.00;99.90;;;;;;5093938;28;20454;-74
2022/10/30 02:24:16;;;;;;;21.83;14.50;;;11.90;99.90;;;;;;5094224;28;20444;-74
2022/10/30 02:26:43;;;;;;;24.30;14.30;;;11.90;99.90;;;;;;5094077;28;20866;-74
2022/10/30 02:29:09;;;;;;;17.13;13.87;;;11.80;99.90;;;;;;5094420;28;20507;-74
2022/10/30 02:31:37;;;;;;;24.10;14.30;;;11.80;99.90;;;;;;5093604;28;20488;-74
2022/10/30 02:34:03;;;;;;;21.03;13.00;;;11.80;99.90;;;;;;5094101;28;20475;-74
2022/10/30 02:36:30;;;;;;;20.10;13.77;;;11.80;99.90;;;;;;5093937;28;21008;-74
2022/10/30 02:38:58;;;;;;;23.17;14.23;;;11.70;99.90;;;;;;5093864;28;20884;-74
2022/10/30 02:41:25;;;;;;;20.60;14.07;;;11.70;99.90;;;;;;5094657;28;20939;-74
2022/10/30 02:43:52;;;;;;;21.13;13.80;;;11.70;99.90;;;;;;5098401;28;20981;-74
2022/10/30 02:46:19;;;;;;;21.53;13.00;;;11.70;99.90;;;;;;5092756;28;20532;-74
2022/10/30 02:48:45;;;;;;;24.13;13.57;;;11.70;99.90;;;;;;5094667;28;20463;-74
2022/10/30 02:51:12;;;;;;;24.40;14.23;;;11.70;99.90;;;;;;5113778;28;20971;-74
2022/10/30 02:53:39;;;;;;;21.17;14.27;;;11.70;99.90;;;;;;5112120;28;20482;-74
2022/10/30 02:56:09;;;;;;;18.63;12.80;;;11.70;99.90;;;;;;5093881;28;20515;-74
2022/10/30 02:58:36;;;;;;;19.57;12.77;;;11.80;99.90;;;;;;5093643;28;20448;-74
2022/10/30 03:01:07;;;;;;;20.67;12.50;;;11.80;99.90;;;;;;5093453;28;20462;-74
2022/10/30 03:03:33;;;;;;;22.87;14.27;;;11.80;99.90;;;;;;5107837;28;20472;-74
2022/10/30 03:06:01;;;;;;;25.50;12.73;;;11.80;99.90;;;;;;5113693;28;20451;-74
2022/10/30 03:08:28;;;;;;;22.60;13.20;;;11.80;99.90;;;;;;5114210;28;20481;-74
2022/10/30 03:11:00;;;;;;;21.70;13.30;;;11.80;99.90;;;;;;5106238;28;20533;-74
2022/10/30 03:13:28;;;;;;;26.60;12.90;;;11.80;99.90;;;;;;5093423;28;20901;-74
2022/10/30 03:16:00;;;;;;;17.57;12.17;;;11.80;99.90;;;;;;5112947;28;20442;-74
2022/10/30 03:18:27;;;;;;;22.43;12.10;;;11.80;99.90;;;;;;5113524;28;20489;-74
2022/10/30 03:20:57;;;;;;;27.37;14.60;;;11.90;99.90;;;;;;5113426;28;20455;-74
2022/10/30 03:23:23;;;;;;;19.43;13.30;;;11.90;99.90;;;;;;5113652;28;20556;-74
2022/10/30 03:25:53;;;;;;;30.57;13.83;;;11.80;99.90;;;;;;5113616;28;20866;-74
2022/10/30 03:28:20;;;;;;;21.50;13.67;;;11.80;99.90;;;;;;5113459;28;20537;-74
2022/10/30 03:30:49;;;;;;;21.37;13.50;;;11.90;99.90;;;;;;5112801;28;20458;-74
2022/10/30 03:33:16;;;;;;;25.47;13.70;;;11.90;99.90;;;;;;5113476;28;20827;-74
2022/10/30 03:35:44;;;;;;;18.97;13.07;;;11.90;99.90;;;;;;5113253;28;20453;-74
2022/10/30 03:38:10;;;;;;;19.97;13.40;;;11.90;99.90;;;;;;5111006;28;21018;-74
2022/10/30 03:40:37;;;;;;;25.03;13.00;;;11.90;99.90;;;;;;5113130;28;20495;-74
2022/10/30 03:43:04;;;;;;;22.20;13.07;;;11.90;99.90;;;;;;5113060;28;20491;-74
2022/10/30 03:45:32;;;;;;;16.87;12.43;;;11.90;99.90;;;;;;5097003;28;20455;-74
2022/10/30 03:48:00;;;;;;;18.60;12.90;;;11.90;99.90;;;;;;5092795;28;20455;-74
2022/10/30 03:50:27;;;;;;;22.50;12.00;;;11.80;99.90;;;;;;5098725;28;20865;-74
2022/10/30 03:52:53;;;;;;;24.50;14.00;;;11.80;99.90;;;;;;5092475;28;20469;-74
2022/10/30 03:55:20;;;;;;;19.30;13.20;;;11.70;99.90;;;;;;5106216;28;20489;-74
2022/10/30 03:57:47;;;;;;;25.10;14.00;;;11.70;99.90;;;;;;5112771;28;20458;-74
2022/10/30 04:00:14;;;;;;;21.20;14.40;;;11.70;99.90;;;;;;5112759;28;20447;-74
2022/10/30 04:02:45;;;;;;;28.63;14.07;;;11.60;99.90;;;;;;5112727;28;20524;-74
2022/10/30 04:05:13;;;;;;;26.33;12.70;;;11.60;99.90;;;;;;5112677;28;20479;-74
2022/10/30 04:07:40;;;;;;;21.10;13.03;;;11.60;99.90;;;;;;5112806;28;20448;-74
2022/10/30 04:10:07;;;;;;;24.83;12.90;;;11.60;99.90;;;;;;5112050;28;20461;-74
2022/10/30 04:12:34;;;;;;;21.10;12.40;;;11.60;99.90;;;;;;5091850;28;21018;-74
2022/10/30 04:15:01;;;;;;;24.40;13.53;;;11.60;99.90;;;;;;5092243;28;20983;-74
2022/10/30 04:17:27;;;;;;;27.03;14.17;;;11.60;99.90;;;;;;5092342;28;20457;-74
2022/10/30 04:19:54;;;;;;;22.30;14.23;;;11.70;99.90;;;;;;5092350;28;20439;-74
2022/10/30 04:22:22;;;;;;;27.17;15.33;;;11.70;99.90;;;;;;5091836;28;20535;-74
2022/10/30 04:24:49;;;;;;;33.60;16.40;;;11.70;99.90;;;;;;5092089;28;20450;-74
2022/10/30 04:27:16;;;;;;;35.17;15.47;;;11.70;99.90;;;;;;5091873;28;20453;-74
2022/10/30 04:29:42;;;;;;;30.20;16.77;;;11.70;99.90;;;;;;5091991;28;20933;-74
2022/10/30 04:32:09;;;;;;;31.00;16.50;;;11.70;99.90;;;;;;5091645;28;20477;-74
2022/10/30 04:34:38;;;;;;;32.03;17.23;;;11.70;99.90;;;;;;5097698;28;20585;-74
2022/10/30 04:37:04;;;;;;;32.50;17.30;;;11.70;99.90;;;;;;5112205;28;21020;-74
2022/10/30 04:39:33;;;;;;;31.10;17.90;;;11.70;99.90;;;;;;5112129;28;20493;-74
2022/10/30 04:41:59;;;;;;;39.07;17.13;;;11.70;99.90;;;;;;5111696;28;20992;-74
2022/10/30 04:44:26;;;;;;;28.33;16.90;;;11.70;99.90;;;;;;5106953;28;20481;-74
2022/10/30 04:46:52;;;;;;;37.47;17.00;;;11.80;99.90;;;;;;5091894;28;20510;-74
2022/10/30 04:49:19;;;;;;;41.30;17.80;;;11.80;99.90;;;;;;5097308;28;20470;-74
2022/10/30 04:51:46;;;;;;;54.97;16.97;;;11.80;99.90;;;;;;5109681;28;20538;-74
2022/10/30 04:54:12;;;;;;;60.97;19.00;;;11.80;99.90;;;;;;5091400;28;20491;-74
2022/10/30 04:56:40;;;;;;;45.97;18.40;;;11.90;99.90;;;;;;5091869;28;20462;-74
2022/10/30 04:59:07;;;;;;;42.40;18.07;;;11.90;99.90;;;;;;5091802;28;20669;-74
2022/10/30 05:01:34;;;;;;;64.60;18.50;;;11.90;99.90;;;;;;5091594;28;20461;-74
2022/10/30 05:04:01;;;;;;;76.77;19.50;;;11.90;99.90;;;;;;5091662;28;20448;-74
2022/10/30 05:06:30;;;;;;;72.23;18.97;;;11.90;99.90;;;;;;5091529;28;20453;-74
2022/10/30 05:08:57;;;;;;;57.17;18.57;;;11.90;99.90;;;;;;5092470;28;20451;-74
2022/10/30 05:11:24;;;;;;;93.97;20.33;;;11.80;99.90;;;;;;5106925;28;20529;-74
2022/10/30 05:13:52;;;;;;;65.53;19.30;;;11.80;99.90;;;;;;5109546;27;20524;-74
2022/10/30 05:16:18;;;;;;;105.33;19.77;;;11.80;99.90;;;;;;5115296;28;20447;-74
2022/10/30 05:18:45;;;;;;;101.77;19.83;;;11.70;99.90;;;;;;5115922;28;20862;-74
2022/10/30 05:21:12;;;;;;;95.07;21.00;;;11.70;99.90;;;;;;5115219;27;20875;-74
2022/10/30 05:23:38;;;;;;;133.47;19.90;;;11.70;99.90;;;;;;5115632;28;20521;-74
2022/10/30 05:26:05;;;;;;;57.73;18.23;;;11.70;99.90;;;;;;5098257;28;20454;-74
2022/10/30 05:28:32;;;;;;;93.67;20.03;;;11.70;99.90;;;;;;5095550;28;20458;-74
2022/10/30 05:31:00;;;;;;;66.07;19.93;;;11.70;99.90;;;;;;5110253;28;20465;-74
2022/10/30 05:33:26;;;;;;;88.50;20.93;;;11.70;99.90;;;;;;5115817;27;20465;-74
2022/10/30 05:35:53;;;;;;;106.53;21.30;;;11.70;99.90;;;;;;5115263;28;20508;-74
2022/10/30 05:38:20;;;;;;;54.87;19.17;;;11.80;99.90;;;;;;5110746;28;20459;-74
2022/10/30 05:40:47;;;;;;;59.10;20.73;;;11.70;99.90;;;;;;5095036;28;20455;-74
2022/10/30 05:43:13;;;;;;;58.80;20.20;;;11.80;99.90;;;;;;5097998;28;20465;-74
2022/10/30 05:45:40;;;;;;;57.70;21.90;;;11.80;99.90;;;;;;5101396;28;20444;-74
2022/10/30 05:48:08;;;;;;;67.33;20.40;;;11.80;99.90;;;;;;5095094;28;20864;-74
2022/10/30 05:50:35;;;;;;;61.00;21.83;;;11.80;99.90;;;;;;5110604;28;20447;-74
2022/10/30 05:53:03;;;;;;;72.83;20.80;;;11.80;99.90;;;;;;5115613;28;20469;-74
2022/10/30 05:55:30;;;;;;;53.03;19.60;;;11.80;99.90;;;;;;5103046;28;20486;-74
2022/10/30 05:57:58;;;;;;;54.53;19.90;;;11.90;99.90;;;;;;5095078;28;20504;-73
2022/10/30 06:00:25;;;;;;;70.10;20.93;;;11.90;99.90;;;;;;5094744;28;20450;-75
2022/10/30 06:02:52;;;;;;;84.33;20.63;;;11.90;99.90;;;;;;5094884;28;20475;-74
2022/10/30 06:05:20;;;;;;;100.83;22.00;;;11.90;99.90;;;;;;5094519;28;20445;-74
2022/10/30 06:07:47;;;;;;;79.80;21.13;;;11.90;99.90;;;;;;5094624;28;20446;-74
2022/10/30 06:10:13;;;;;;;76.00;20.27;;;11.90;99.90;;;;;;5095018;28;20477;-73
2022/10/30 06:12:40;;;;;;;71.30;18.63;;;11.90;99.90;;;;;;5112602;28;21018;-73
2022/10/30 06:15:07;;;;;;;64.10;19.53;;;11.90;99.90;;;;;;5104452;28;20486;-73
2022/10/30 06:17:34;;;;;;;53.23;18.27;;;12.00;99.90;;;;;;5092655;28;20462;-73
2022/10/30 06:20:01;;;;;;;74.00;19.83;;;12.00;99.90;;;;;;5093609;28;20462;-73
2022/10/30 06:22:29;;;;;;;57.90;19.13;;;12.00;99.90;;;;;;5105684;28;20483;-73
2022/10/30 06:24:55;;;;;;;112.33;22.40;;;12.00;99.90;;;;;;5117522;27;20456;-73
2022/10/30 06:27:22;;;;;;;43.03;19.40;;;12.00;99.90;;;;;;5094234;28;20458;-73
2022/10/30 06:29:49;;;;;;;72.40;17.60;;;12.00;99.90;;;;;;5094154;28;20453;-73
2022/10/30 06:32:16;;;;;;;51.13;17.40;;;12.00;99.90;;;;;;5093367;28;20623;-73
2022/10/30 06:34:43;;;;;;;72.37;18.40;;;12.00;99.90;;;;;;5094063;28;20494;-74
2022/10/30 06:37:10;;;;;;;80.20;17.30;;;12.00;99.90;;;;;;5093997;28;20447;-73
2022/10/30 06:39:38;;;;;;;60.73;18.23;;;12.00;99.90;;;;;;5094035;28;20497;-74
2022/10/30 06:42:05;;;;;;;57.93;16.30;;;12.00;99.90;;;;;;5093418;28;20567;-74
2022/10/30 06:44:32;;;;;;;31.80;15.50;;;12.00;99.90;;;;;;5105044;28;20445;-73
2022/10/30 06:46:58;;;;;;;32.33;16.30;;;12.00;99.90;;;;;;5093376;28;20455;-74
2022/10/30 06:49:25;;;;;;;24.10;16.20;;;11.90;99.90;;;;;;5100027;28;20444;-73
2022/10/30 06:51:52;;;;;;;34.77;16.53;;;11.90;99.90;;;;;;5113795;28;20456;-73
2022/10/30 06:54:19;;;;;;;29.00;16.63;;;11.90;99.90;;;;;;5113482;28;20446;-73
2022/10/30 06:56:50;;;;;;;40.43;17.57;;;11.90;99.90;;;;;;5093685;28;20457;-73
2022/10/30 06:59:17;;;;;;;29.87;15.73;;;12.00;99.90;;;;;;5093360;28;20462;-73
2022/10/30 07:01:44;;;;;;;38.70;16.47;;;12.00;99.90;;;;;;5093387;28;20454;-73
2022/10/30 07:04:10;;;;;;;57.50;17.70;;;12.00;99.90;;;;;;5093294;28;20451;-73
2022/10/30 07:06:37;;;;;;;37.27;17.57;;;12.00;99.90;;;;;;5093294;28;20482;-73
2022/10/30 07:09:04;;;;;;;75.60;20.07;;;12.10;99.90;;;;;;5093301;28;20460;-74
2022/10/30 07:11:31;;;;;;;61.93;18.00;;;12.10;99.90;;;;;;5104766;28;20499;-74
2022/10/30 07:13:59;;;;;;;66.30;18.50;;;12.10;99.90;;;;;;5112602;28;20469;-73
2022/10/30 07:16:26;;;;;;;54.20;16.97;;;12.20;99.90;;;;;;5094951;28;20483;-73
2022/10/30 07:18:52;;;;;;;54.47;17.43;;;12.20;99.90;;;;;;5092521;28;20451;-73
2022/10/30 07:21:19;;;;;;;77.47;18.40;;;12.30;99.90;;;;;;5092186;28;20454;-74
2022/10/30 07:23:46;;;;;;;76.27;18.23;;;12.40;99.90;;;;;;5091930;28;20504;-74
2022/10/30 07:26:12;;;;;;;80.80;18.70;;;12.40;99.90;;;;;;5106875;28;20457;-74
2022/10/30 07:28:39;;;;;;;67.03;18.77;;;12.40;99.90;;;;;;5112468;28;20947;-74
2022/10/30 07:31:07;;;;;;;81.57;18.27;;;12.50;99.90;;;;;;5112002;28;20809;-74
2022/10/30 07:33:34;;;;;;;143.33;18.43;;;12.50;99.90;;;;;;5112380;28;20473;-74
2022/10/30 07:36:01;;;;;;;76.10;17.43;;;12.50;99.90;;;;;;5112270;28;20493;-74
2022/10/30 07:38:28;;;;;;;92.67;17.60;;;12.50;99.90;;;;;;5109996;28;20485;-74
2022/10/30 07:40:55;;;;;;;60.70;17.20;;;12.40;99.90;;;;;;5110377;28;20465;-73
2022/10/30 07:43:22;;;;;;;139.60;18.57;;;12.50;99.90;;;;;;5107947;28;20474;-73
2022/10/30 07:45:48;;;;;;;96.67;15.90;;;12.60;99.90;;;;;;5108029;28;20468;-73
2022/10/30 07:48:16;;;;;;;57.10;17.60;;;12.70;99.90;;;;;;5108786;28;20451;-74
2022/10/30 07:50:43;;;;;;;59.77;17.00;;;12.70;99.90;;;;;;5108437;28;20450;-73
2022/10/30 07:53:09;;;;;;;58.13;17.50;;;12.80;99.90;;;;;;5108417;28;20466;-72
2022/10/30 07:55:36;;;;;;;41.97;15.93;;;12.90;99.90;;;;;;5108268;28;20482;-72
2022/10/30 07:58:03;;;;;;;74.03;16.97;;;13.00;99.90;;;;;;5108630;28;20443;-72
2022/10/30 08:00:29;;;;;;;50.33;17.07;;;13.10;99.90;;;;;;5108213;28;20943;-72
2022/10/30 08:02:57;;;;;;;29.90;16.77;;;13.10;99.90;;;;;;5108741;28;20470;-71
2022/10/30 08:05:25;;;;;;;62.50;17.70;;;13.20;99.90;;;;;;5108196;28;21014;-72
2022/10/30 08:07:52;;;;;;;39.93;18.10;;;13.30;99.90;;;;;;5108245;28;20537;-74
2022/10/30 08:10:18;;;;;;;42.70;18.30;;;13.30;99.90;;;;;;5107948;28;20806;-74
2022/10/30 08:12:47;;;;;;;30.83;18.40;;;13.30;99.90;;;;;;5108073;28;20499;-74
2022/10/30 08:15:14;;;;;;;42.03;18.47;;;13.40;99.90;;;;;;5107689;28;20483;-74
2022/10/30 08:17:45;;;;;;;39.30;17.83;;;13.40;99.90;;;;;;5107843;28;20454;-74
2022/10/30 08:20:13;;;;;;;61.87;19.33;;;13.50;99.90;;;;;;5108038;28;20435;-74
2022/10/30 08:22:48;;;;;;;68.33;19.23;;;13.50;99.90;;;;;;5107642;28;20466;-74
2022/10/30 08:25:17;;;;;;;64.97;22.97;;;13.40;99.90;;;;;;5107354;28;20440;-74
2022/10/30 08:27:52;;;;;;;63.63;24.00;;;13.40;99.90;;;;;;5108138;28;20481;-74
2022/10/30 08:30:18;;;;;;;48.93;20.27;;;13.40;99.90;;;;;;5107805;28;20545;-74
2022/10/30 08:32:45;;;;;;;38.17;19.13;;;13.40;99.90;;;;;;5107315;28;20459;-73
2022/10/30 08:35:12;;;;;;;39.90;19.60;;;13.50;99.90;;;;;;5107534;28;20467;-74
2022/10/30 08:37:38;;;;;;;43.93;20.17;;;13.60;99.90;;;;;;5108209;28;20451;-74
2022/10/30 08:40:08;;;;;;;34.97;19.60;;;13.60;99.90;;;;;;5107834;28;20438;-74
2022/10/30 08:42:35;;;;;;;42.37;20.47;;;13.70;99.90;;;;;;5107023;28;20466;-74
2022/10/30 08:45:02;;;;;;;36.83;18.63;;;13.80;99.90;;;;;;5106652;28;20454;-72
2022/10/30 08:47:29;;;;;;;39.63;20.90;;;14.10;99.90;;;;;;5107840;28;20451;-74
2022/10/30 08:49:55;;;;;;;27.80;18.93;;;14.40;99.90;;;;;;5107136;28;20450;-74
2022/10/30 08:52:22;;;;;;;38.00;19.10;;;14.90;99.90;;;;;;5107609;28;20519;-74
2022/10/30 08:54:49;;;;;;;27.13;17.43;;;15.50;99.90;;;;;;5107270;28;20418;-74
2022/10/30 08:57:17;;;;;;;27.73;16.13;;;15.90;99.90;;;;;;5107980;28;20491;-74
2022/10/30 08:59:43;;;;;;;25.57;14.50;;;16.40;99.90;;;;;;5107862;28;20416;-75
2022/10/30 09:02:10;;;;;;;23.90;14.07;;;16.90;99.90;;;;;;5107198;28;20437;-75
2022/10/30 09:04:37;;;;;;;23.30;14.43;;;17.40;99.90;;;;;;5107659;28;20481;-75
2022/10/30 09:07:03;;;;;;;18.80;13.30;;;17.80;99.90;;;;;;5107237;28;20418;-74
2022/10/30 09:09:30;;;;;;;19.30;13.13;;;17.90;99.90;;;;;;5107694;28;20884;-75
2022/10/30 09:11:57;;;;;;;29.03;12.50;;;18.10;99.90;;;;;;5107413;28;20850;-75
2022/10/30 09:14:25;;;;;;;18.70;12.60;;;18.20;99.90;;;;;;5107706;28;20704;-74
2022/10/30 09:16:51;;;;;;;22.13;12.30;;;18.30;99.90;;;;;;5108112;28;20457;-74
2022/10/30 09:19:18;;;;;;;25.23;13.00;;;18.30;99.90;;;;;;5108867;28;20470;-74
2022/10/30 09:21:45;;;;;;;25.60;14.40;;;18.40;99.90;;;;;;5107622;28;20454;-73
2022/10/30 09:24:11;;;;;;;19.27;12.53;;;18.70;99.90;;;;;;5107442;28;20421;-73
2022/10/30 09:26:38;;;;;;;21.77;12.10;;;19.00;99.90;;;;;;5106996;28;20446;-73
2022/10/30 09:29:04;;;;;;;22.30;11.50;;;19.40;99.90;;;;;;5107476;28;20927;-72
2022/10/30 09:31:32;;;;;;;23.97;13.10;;;19.60;99.90;;;;;;5107353;28;20928;-73
2022/10/30 09:33:59;;;;;;;22.97;12.20;;;19.70;99.90;;;;;;5107913;28;20459;-73
2022/10/30 09:36:26;;;;;;;22.57;12.47;;;19.60;99.90;;;;;;5107761;28;20494;-72
2022/10/30 09:38:54;;;;;;;25.73;12.90;;;19.60;99.90;;;;;;5107830;28;20443;-72
2022/10/30 09:41:39;;;;;;;33.90;14.53;;;19.70;99.90;;;;;;5107915;28;20936;-73
2022/10/30 09:44:19;;;;;;;21.70;12.80;;;19.70;99.90;;;;;;5107537;28;20499;-73
2022/10/30 09:47:03;;;;;;;53.87;29.83;;;19.90;99.90;;;;;;5107893;28;20461;-74
2022/10/30 09:49:47;;;;;;;22.63;13.40;;;20.10;99.90;;;;;;5107838;28;20438;-74
2022/10/30 09:52:23;;;;;;;26.67;14.80;;;20.40;99.90;;;;;;5090467;28;21020;-74
2022/10/30 09:55:00;;;;;;;29.20;13.90;;;20.90;99.90;;;;;;5092211;28;20447;-74
2022/10/30 09:57:35;;;;;;;30.13;14.30;;;21.20;99.90;;;;;;5094948;28;20544;-74
2022/10/30 10:00:07;;;;;;;26.60;13.77;;;21.60;99.90;;;;;;5094888;28;20496;-74
2022/10/30 10:02:37;;;;;;;23.37;12.47;;;21.80;99.90;;;;;;5094588;28;20475;-74
2022/10/30 10:05:13;;;;;;;25.77;12.90;;;21.80;99.90;;;;;;5094823;28;20435;-73
2022/10/30 10:07:44;;;;;;;31.67;14.17;;;21.90;99.90;;;;;;5094899;28;20454;-74
2022/10/30 10:10:15;;;;;;;30.07;12.00;;;22.00;99.90;;;;;;5094566;28;20488;-74
2022/10/30 10:12:46;;;;;;;28.20;12.97;;;22.10;99.90;;;;;;5093939;28;20490;-74
2022/10/30 10:15:19;;;;;;;20.53;12.63;;;22.20;99.90;;;;;;5094079;28;20443;-74
2022/10/30 10:17:47;;;;;;;24.70;11.90;;;22.20;99.90;;;;;;5094700;28;20489;-74
2022/10/30 10:20:22;;;;;;;26.50;11.87;;;22.20;99.90;;;;;;5094570;28;20463;-74
2022/10/30 10:22:50;;;;;;;23.60;13.40;;;22.20;99.90;;;;;;5094371;28;20471;-74
2022/10/30 10:25:19;;;;;;;26.50;13.50;;;21.90;99.90;;;;;;5094374;28;20884;-74
2022/10/30 10:28:05;;;;;;;24.17;12.70;;;21.90;99.90;;;;;;5094105;28;20451;-74
2022/10/30 10:30:40;;;;;;;31.07;13.60;;;21.90;99.90;;;;;;5093733;28;20466;-73
2022/10/30 10:33:24;;;;;;;29.03;14.30;;;22.00;99.90;;;;;;5094007;28;20891;-74
2022/10/30 10:36:05;;;;;;;31.10;14.20;;;22.20;99.90;;;;;;5093820;28;20475;-74
2022/10/30 10:38:44;;;;;;;27.20;14.40;;;21.90;99.90;;;;;;5094062;28;20439;-74
2022/10/30 10:41:18;;;;;;;24.53;14.17;;;21.50;99.90;;;;;;5093912;28;20496;-74
2022/10/30 10:44:01;;;;;;;35.30;15.17;;;21.20;99.90;;;;;;5101313;28;20553;-74
2022/10/30 10:46:45;;;;;;;22.30;14.50;;;20.90;99.90;;;;;;5101557;28;20452;-74
2022/10/30 10:49:28;;;;;;;25.80;13.93;;;20.60;99.90;;;;;;5098769;28;20441;-74
2022/10/30 10:51:58;;;;;;;30.23;15.70;;;20.50;99.90;;;;;;5113882;28;20446;-74
2022/10/30 10:54:30;;;;;;;26.13;14.67;;;20.50;99.90;;;;;;5114310;28;20442;-74
2022/10/30 10:56:58;;;;;;;35.70;14.40;;;20.60;99.90;;;;;;5097491;28;20490;-74
2022/10/30 10:59:32;;;;;;;33.33;14.60;;;20.60;99.90;;;;;;5093961;28;20458;-74
2022/10/30 11:02:22;;;;;;;26.73;13.80;;;20.50;99.90;;;;;;5104229;28;20474;-74
2022/10/30 11:04:53;;;;;;;26.83;13.93;;;20.50;99.90;;;;;;5114156;28;20476;-74
2022/10/30 11:07:22;;;;;;;23.07;15.07;;;20.60;99.90;;;;;;5112535;28;20523;-74
2022/10/30 11:09:52;;;;;;;33.13;14.43;;;20.60;99.90;;;;;;5113865;28;20453;-74
2022/10/30 11:12:21;;;;;;;25.27;14.53;;;20.70;99.90;;;;;;5094480;27;20471;-74
2022/10/30 11:14:48;;;;;;;26.63;14.33;;;20.90;99.90;;;;;;5093606;28;20505;-74
2022/10/30 11:17:21;;;;;;;26.97;13.80;;;21.20;99.90;;;;;;5093300;28;20533;-74
2022/10/30 11:19:54;;;;;;;23.97;13.20;;;21.10;99.90;;;;;;5093181;28;20513;-74
2022/10/30 11:22:30;;;;;;;27.17;13.63;;;21.10;99.90;;;;;;5093311;28;20474;-74
2022/10/30 11:25:01;;;;;;;35.03;14.10;;;21.40;99.90;;;;;;5093467;28;20813;-74
2022/10/30 11:27:29;;;;;;;28.83;12.63;;;21.60;99.90;;;;;;5112802;28;20454;-74
2022/10/30 11:29:58;;;;;;;22.47;13.03;;;21.50;99.90;;;;;;5114082;28;20852;-73
2022/10/30 11:32:29;;;;;;;28.73;13.30;;;21.60;99.90;;;;;;5112926;28;20492;-74
2022/10/30 11:35:12;;;;;;;21.33;13.23;;;21.70;99.90;;;;;;5113607;28;20442;-75
2022/10/30 11:37:41;;;;;;;22.83;12.63;;;21.70;99.90;;;;;;5092878;28;20863;-74
2022/10/30 11:40:17;;;;;;;25.60;13.10;;;21.80;99.90;;;;;;5094253;28;20451;-74
2022/10/30 11:42:47;;;;;;;23.97;13.90;;;21.80;99.90;;;;;;5092327;28;20470;-75
2022/10/30 11:45:17;;;;;;;25.80;13.07;;;21.80;99.90;;;;;;5111469;28;21009;-74
2022/10/30 11:47:44;;;;;;;26.00;14.13;;;21.70;99.90;;;;;;5092645;28;20446;-75
2022/10/30 11:50:19;;;;;;;25.10;12.23;;;21.70;99.90;;;;;;5105322;28;20451;-74
2022/10/30 11:52:47;;;;;;;28.57;14.50;;;21.50;99.90;;;;;;5112690;28;20506;-74
2022/10/30 11:55:18;;;;;;;29.23;13.37;;;21.50;99.90;;;;;;5111919;28;20499;-74
2022/10/30 11:57:47;;;;;;;25.90;12.50;;;21.40;99.90;;;;;;5113023;28;20486;-74
2022/10/30 12:00:17;;;;;;;31.07;11.67;;;21.30;99.90;;;;;;5112878;28;20442;-74
2022/10/30 12:02:47;;;;;;;20.87;12.33;;;21.40;99.90;;;;;;5112750;28;20470;-74
2022/10/30 12:05:34;;;;;;;23.10;12.70;;;21.60;99.90;;;;;;5110701;28;20447;-74
2022/10/30 12:08:18;;;;;;;19.07;11.00;;;21.60;99.90;;;;;;5112894;28;20453;-74
2022/10/30 12:10:47;;;;;;;26.23;11.27;;;21.70;99.90;;;;;;5106528;28;20496;-75
2022/10/30 12:13:15;;;;;;;23.07;10.70;;;21.80;99.90;;;;;;5092099;28;20494;-74
2022/10/30 12:15:43;;;;;;;23.10;10.47;;;21.90;99.90;;;;;;5092180;28;20451;-74
2022/10/30 12:18:19;;;;;;;21.00;10.73;;;22.00;99.90;;;;;;5091683;28;20490;-74
2022/10/30 12:20:51;;;;;;;17.63;10.70;;;22.20;99.90;;;;;;5092096;28;20458;-74
2022/10/30 12:23:23;;;;;;;25.40;10.70;;;22.40;99.90;;;;;;5092182;28;20467;-75
2022/10/30 12:25:53;;;;;;;20.70;10.33;;;22.70;99.90;;;;;;5092034;28;20459;-74
2022/10/30 12:28:22;;;;;;;21.97;8.70;;;22.90;99.90;;;;;;5092010;28;20918;-74
2022/10/30 12:30:54;;;;;;;24.10;10.00;;;23.10;99.90;;;;;;5091483;28;20463;-74
2022/10/30 12:33:25;;;;;;;19.53;9.73;;;22.90;99.90;;;;;;5091926;28;20550;-74
2022/10/30 12:35:57;;;;;;;18.93;9.60;;;22.90;99.90;;;;;;5098140;28;20461;-74